sensor_id;sensor_type;location;lat;lon;timestamp;P1;durP1;ratioP1;P2;durP2;ratioP2
28958;SDS011;16066;0.000;0.000;2023-03-05T00:00:36;16.17;;;11.33;;
28958;SDS011;16066;0.000;0.000;2023-03-05T00:03:02;18.27;;;11.40;;
28958;SDS011;16066;0.000;0.000;2023-03-05T00:05:27;17.40;;;11.53;;
28958;SDS011;16066;0.000;0.000;2023-03-05T00:07:53;16.23;;;11.10;;
28958;SDS011;16066;0.000;0.000;2023-03-05T00:10:19;21.43;;;13.43;;
28958;SDS011;16066;0.000;0.000;2023-03-05T00:12:44;18.30;;;12.23;;
28958;SDS011;16066;0.000;0.000;2023-03-05T00:15:10;16.90;;;11.27;;
28958;SDS011;16066;0.000;0.000;2023-03-05T00:17:35;16.80;;;11.50;;
28958;SDS011;16066;0.000;0.000;2023-03-05T00:20:01;16.47;;;11.97;;
28958;SDS011;16066;0.000;0.000;2023-03-05T00:22:27;16.17;;;11.87;;
28958;SDS011;16066;0.000;0.000;2023-03-05T00:24:52;15.83;;;11.40;;
28958;SDS011;16066;0.000;0.000;2023-03-05T00:27:18;17.83;;;12.13;;
28958;SDS011;16066;0.000;0.000;2023-03-05T00:29:43;16.80;;;12.53;;
28958;SDS011;16066;0.000;0.000;2023-03-05T00:32:09;16.80;;;11.70;;
28958;SDS011;16066;0.000;0.000;2023-03-05T00:34:34;15.87;;;11.33;;
28958;SDS011;16066;0.000;0.000;2023-03-05T00:37:01;16.30;;;11.00;;
28958;SDS011;16066;0.000;0.000;2023-03-05T00:39:27;18.30;;;12.80;;
28958;SDS011;16066;0.000;0.000;2023-03-05T00:41:53;16.40;;;12.40;;
28958;SDS011;16066;0.000;0.000;2023-03-05T00:44:18;18.07;;;12.00;;
28958;SDS011;16066;0.000;0.000;2023-03-05T00:46:44;16.70;;;12.10;;
28958;SDS011;16066;0.000;0.000;2023-03-05T00:49:09;16.70;;;12.50;;
28958;SDS011;16066;0.000;0.000;2023-03-05T00:51:35;19.00;;;12.43;;
28958;SDS011;16066;0.000;0.000;2023-03-05T00:54:00;16.50;;;11.80;;
28958;SDS011;16066;0.000;0.000;2023-03-05T00:56:26;17.27;;;11.87;;
28958;SDS011;16066;0.000;0.000;2023-03-05T00:58:52;18.67;;;13.10;;
28958;SDS011;16066;0.000;0.000;2023-03-05T01:01:17;17.70;;;12.00;;
28958;SDS011;16066;0.000;0.000;2023-03-05T01:03:43;18.10;;;12.30;;
28958;SDS011;16066;0.000;0.000;2023-03-05T01:06:10;17.40;;;11.97;;
28958;SDS011;16066;0.000;0.000;2023-03-05T01:08:37;20.13;;;14.30;;
28958;SDS011;16066;0.000;0.000;2023-03-05T01:11:04;16.93;;;12.27;;
28958;SDS011;16066;0.000;0.000;2023-03-05T01:13:30;17.83;;;12.60;;
28958;SDS011;16066;0.000;0.000;2023-03-05T01:15:56;17.17;;;11.90;;
28958;SDS011;16066;0.000;0.000;2023-03-05T01:18:22;19.40;;;12.70;;
28958;SDS011;16066;0.000;0.000;2023-03-05T01:20:47;17.87;;;12.67;;
28958;SDS011;16066;0.000;0.000;2023-03-05T01:23:13;19.13;;;13.37;;
28958;SDS011;16066;0.000;0.000;2023-03-05T01:25:39;19.03;;;13.53;;
28958;SDS011;16066;0.000;0.000;2023-03-05T01:28:05;22.20;;;13.77;;
28958;SDS011;16066;0.000;0.000;2023-03-05T01:30:31;20.90;;;14.30;;
28958;SDS011;16066;0.000;0.000;2023-03-05T01:32:56;18.87;;;12.90;;
28958;SDS011;16066;0.000;0.000;2023-03-05T01:35:23;19.47;;;12.80;;
28958;SDS011;16066;0.000;0.000;2023-03-05T01:37:50;22.30;;;13.13;;
28958;SDS011;16066;0.000;0.000;2023-03-05T01:40:21;20.43;;;14.00;;
28958;SDS011;16066;0.000;0.000;2023-03-05T01:42:54;19.50;;;13.73;;
28958;SDS011;16066;0.000;0.000;2023-03-05T01:45:22;19.60;;;13.00;;
28958;SDS011;16066;0.000;0.000;2023-03-05T01:47:48;19.27;;;13.70;;
28958;SDS011;16066;0.000;0.000;2023-03-05T01:50:15;21.63;;;14.03;;
28958;SDS011;16066;0.000;0.000;2023-03-05T01:52:45;21.10;;;14.20;;
28958;SDS011;16066;0.000;0.000;2023-03-05T01:55:21;20.97;;;14.23;;
28958;SDS011;16066;0.000;0.000;2023-03-05T01:57:49;19.83;;;14.13;;
28958;SDS011;16066;0.000;0.000;2023-03-05T02:00:21;21.40;;;13.30;;
28958;SDS011;16066;0.000;0.000;2023-03-05T02:02:51;19.27;;;13.37;;
28958;SDS011;16066;0.000;0.000;2023-03-05T02:05:19;20.87;;;14.10;;
28958;SDS011;16066;0.000;0.000;2023-03-05T02:07:52;18.80;;;13.93;;
28958;SDS011;16066;0.000;0.000;2023-03-05T02:10:25;20.53;;;14.07;;
28958;SDS011;16066;0.000;0.000;2023-03-05T02:12:55;18.07;;;13.83;;
28958;SDS011;16066;0.000;0.000;2023-03-05T02:15:24;20.80;;;14.67;;
28958;SDS011;16066;0.000;0.000;2023-03-05T02:17:50;20.90;;;14.67;;
28958;SDS011;16066;0.000;0.000;2023-03-05T02:20:18;19.40;;;13.77;;
28958;SDS011;16066;0.000;0.000;2023-03-05T02:22:45;22.70;;;16.17;;
28958;SDS011;16066;0.000;0.000;2023-03-05T02:25:19;21.93;;;14.97;;
28958;SDS011;16066;0.000;0.000;2023-03-05T02:28:07;18.70;;;13.40;;
28958;SDS011;16066;0.000;0.000;2023-03-05T02:30:33;21.20;;;14.97;;
28958;SDS011;16066;0.000;0.000;2023-03-05T02:33:00;19.00;;;12.97;;
28958;SDS011;16066;0.000;0.000;2023-03-05T02:35:26;19.67;;;14.10;;
28958;SDS011;16066;0.000;0.000;2023-03-05T02:37:51;26.17;;;15.57;;
28958;SDS011;16066;0.000;0.000;2023-03-05T02:40:17;21.80;;;14.53;;
28958;SDS011;16066;0.000;0.000;2023-03-05T02:42:43;22.90;;;16.00;;
28958;SDS011;16066;0.000;0.000;2023-03-05T02:45:09;21.50;;;15.07;;
28958;SDS011;16066;0.000;0.000;2023-03-05T02:47:35;23.60;;;15.63;;
28958;SDS011;16066;0.000;0.000;2023-03-05T02:50:01;22.97;;;15.43;;
28958;SDS011;16066;0.000;0.000;2023-03-05T02:52:28;20.23;;;14.60;;
28958;SDS011;16066;0.000;0.000;2023-03-05T02:54:55;24.07;;;15.00;;
28958;SDS011;16066;0.000;0.000;2023-03-05T02:57:20;20.30;;;14.93;;
28958;SDS011;16066;0.000;0.000;2023-03-05T02:59:46;20.63;;;14.07;;
28958;SDS011;16066;0.000;0.000;2023-03-05T03:02:12;24.00;;;16.00;;
28958;SDS011;16066;0.000;0.000;2023-03-05T03:04:37;22.77;;;16.50;;
28958;SDS011;16066;0.000;0.000;2023-03-05T03:07:03;22.03;;;16.10;;
28958;SDS011;16066;0.000;0.000;2023-03-05T03:09:29;23.00;;;15.70;;
28958;SDS011;16066;0.000;0.000;2023-03-05T03:11:55;22.97;;;15.43;;
28958;SDS011;16066;0.000;0.000;2023-03-05T03:14:20;22.83;;;16.00;;
28958;SDS011;16066;0.000;0.000;2023-03-05T03:16:46;23.40;;;16.10;;
28958;SDS011;16066;0.000;0.000;2023-03-05T03:19:12;23.93;;;15.90;;
28958;SDS011;16066;0.000;0.000;2023-03-05T03:21:38;22.20;;;15.13;;
28958;SDS011;16066;0.000;0.000;2023-03-05T03:24:03;23.10;;;16.70;;
28958;SDS011;16066;0.000;0.000;2023-03-05T03:26:29;24.33;;;17.03;;
28958;SDS011;16066;0.000;0.000;2023-03-05T03:28:55;25.93;;;17.23;;
28958;SDS011;16066;0.000;0.000;2023-03-05T03:31:21;23.50;;;16.70;;
28958;SDS011;16066;0.000;0.000;2023-03-05T03:33:47;23.07;;;15.80;;
28958;SDS011;16066;0.000;0.000;2023-03-05T03:36:13;23.27;;;16.77;;
28958;SDS011;16066;0.000;0.000;2023-03-05T03:38:39;26.60;;;17.43;;
28958;SDS011;16066;0.000;0.000;2023-03-05T03:41:05;28.23;;;18.30;;
28958;SDS011;16066;0.000;0.000;2023-03-05T03:43:32;24.70;;;17.07;;
28958;SDS011;16066;0.000;0.000;2023-03-05T03:45:58;25.10;;;17.33;;
28958;SDS011;16066;0.000;0.000;2023-03-05T03:48:24;23.27;;;17.73;;
28958;SDS011;16066;0.000;0.000;2023-03-05T03:50:49;23.63;;;17.90;;
28958;SDS011;16066;0.000;0.000;2023-03-05T03:53:15;24.20;;;17.53;;
28958;SDS011;16066;0.000;0.000;2023-03-05T03:55:41;26.80;;;17.97;;
28958;SDS011;16066;0.000;0.000;2023-03-05T03:58:10;25.30;;;17.43;;
28958;SDS011;16066;0.000;0.000;2023-03-05T04:00:35;25.63;;;18.27;;
28958;SDS011;16066;0.000;0.000;2023-03-05T04:03:01;26.13;;;18.77;;
28958;SDS011;16066;0.000;0.000;2023-03-05T04:05:27;24.40;;;18.20;;
28958;SDS011;16066;0.000;0.000;2023-03-05T04:07:53;23.80;;;16.60;;
28958;SDS011;16066;0.000;0.000;2023-03-05T04:10:18;25.90;;;16.50;;
28958;SDS011;16066;0.000;0.000;2023-03-05T04:12:44;23.53;;;17.30;;
28958;SDS011;16066;0.000;0.000;2023-03-05T04:15:10;25.17;;;16.80;;
28958;SDS011;16066;0.000;0.000;2023-03-05T04:17:36;26.83;;;17.93;;
28958;SDS011;16066;0.000;0.000;2023-03-05T04:20:01;23.13;;;15.53;;
28958;SDS011;16066;0.000;0.000;2023-03-05T04:22:29;25.93;;;17.37;;
28958;SDS011;16066;0.000;0.000;2023-03-05T04:24:55;22.30;;;16.20;;
28958;SDS011;16066;0.000;0.000;2023-03-05T04:27:20;21.43;;;15.83;;
28958;SDS011;16066;0.000;0.000;2023-03-05T04:29:46;25.30;;;15.87;;
28958;SDS011;16066;0.000;0.000;2023-03-05T04:32:11;21.70;;;16.10;;
28958;SDS011;16066;0.000;0.000;2023-03-05T04:34:37;22.23;;;16.17;;
28958;SDS011;16066;0.000;0.000;2023-03-05T04:37:02;22.90;;;15.60;;
28958;SDS011;16066;0.000;0.000;2023-03-05T04:39:28;22.63;;;15.70;;
28958;SDS011;16066;0.000;0.000;2023-03-05T04:41:53;25.17;;;16.70;;
28958;SDS011;16066;0.000;0.000;2023-03-05T04:44:19;25.47;;;16.73;;
28958;SDS011;16066;0.000;0.000;2023-03-05T04:46:47;22.60;;;15.67;;
28958;SDS011;16066;0.000;0.000;2023-03-05T04:49:13;21.07;;;14.30;;
28958;SDS011;16066;0.000;0.000;2023-03-05T04:51:39;23.07;;;15.70;;
28958;SDS011;16066;0.000;0.000;2023-03-05T04:54:05;21.13;;;15.10;;
28958;SDS011;16066;0.000;0.000;2023-03-05T04:56:31;21.10;;;15.00;;
28958;SDS011;16066;0.000;0.000;2023-03-05T04:58:57;23.30;;;15.87;;
28958;SDS011;16066;0.000;0.000;2023-03-05T05:01:23;21.03;;;14.20;;
28958;SDS011;16066;0.000;0.000;2023-03-05T05:03:48;19.60;;;14.17;;
28958;SDS011;16066;0.000;0.000;2023-03-05T05:06:14;21.40;;;14.20;;
28958;SDS011;16066;0.000;0.000;2023-03-05T05:08:39;22.60;;;15.50;;
28958;SDS011;16066;0.000;0.000;2023-03-05T05:11:06;23.30;;;15.57;;
28958;SDS011;16066;0.000;0.000;2023-03-05T05:13:32;21.80;;;14.80;;
28958;SDS011;16066;0.000;0.000;2023-03-05T05:15:58;20.20;;;15.00;;
28958;SDS011;16066;0.000;0.000;2023-03-05T05:18:24;22.97;;;15.70;;
28958;SDS011;16066;0.000;0.000;2023-03-05T05:20:50;22.50;;;16.00;;
28958;SDS011;16066;0.000;0.000;2023-03-05T05:23:16;21.10;;;14.53;;
28958;SDS011;16066;0.000;0.000;2023-03-05T05:25:42;21.47;;;15.07;;
28958;SDS011;16066;0.000;0.000;2023-03-05T05:28:08;21.37;;;14.73;;
28958;SDS011;16066;0.000;0.000;2023-03-05T05:30:34;18.87;;;13.10;;
28958;SDS011;16066;0.000;0.000;2023-03-05T05:33:00;18.37;;;13.50;;
28958;SDS011;16066;0.000;0.000;2023-03-05T05:35:26;22.90;;;14.07;;
28958;SDS011;16066;0.000;0.000;2023-03-05T05:37:52;19.17;;;13.53;;
28958;SDS011;16066;0.000;0.000;2023-03-05T05:40:17;20.97;;;13.93;;
28958;SDS011;16066;0.000;0.000;2023-03-05T05:42:43;20.37;;;13.83;;
28958;SDS011;16066;0.000;0.000;2023-03-05T05:45:09;18.60;;;13.00;;
28958;SDS011;16066;0.000;0.000;2023-03-05T05:47:35;20.30;;;13.53;;
28958;SDS011;16066;0.000;0.000;2023-03-05T05:50:01;19.30;;;13.00;;
28958;SDS011;16066;0.000;0.000;2023-03-05T05:52:27;17.17;;;12.80;;
28958;SDS011;16066;0.000;0.000;2023-03-05T05:54:52;19.00;;;13.17;;
28958;SDS011;16066;0.000;0.000;2023-03-05T05:57:18;19.00;;;14.50;;
28958;SDS011;16066;0.000;0.000;2023-03-05T05:59:43;19.90;;;13.37;;
28958;SDS011;16066;0.000;0.000;2023-03-05T06:02:09;20.53;;;12.83;;
28958;SDS011;16066;0.000;0.000;2023-03-05T06:04:35;20.50;;;14.30;;
28958;SDS011;16066;0.000;0.000;2023-03-05T06:07:00;21.20;;;14.83;;
28958;SDS011;16066;0.000;0.000;2023-03-05T06:09:27;17.33;;;12.70;;
28958;SDS011;16066;0.000;0.000;2023-03-05T06:11:52;19.57;;;13.23;;
28958;SDS011;16066;0.000;0.000;2023-03-05T06:14:18;17.83;;;12.30;;
28958;SDS011;16066;0.000;0.000;2023-03-05T06:16:43;21.43;;;14.43;;
28958;SDS011;16066;0.000;0.000;2023-03-05T06:19:12;18.50;;;12.90;;
28958;SDS011;16066;0.000;0.000;2023-03-05T06:21:39;19.93;;;14.37;;
28958;SDS011;16066;0.000;0.000;2023-03-05T06:24:05;18.63;;;13.07;;
28958;SDS011;16066;0.000;0.000;2023-03-05T06:26:31;19.50;;;13.43;;
28958;SDS011;16066;0.000;0.000;2023-03-05T06:28:57;19.70;;;13.13;;
28958;SDS011;16066;0.000;0.000;2023-03-05T06:31:24;20.00;;;13.47;;
28958;SDS011;16066;0.000;0.000;2023-03-05T06:33:51;18.10;;;12.20;;
28958;SDS011;16066;0.000;0.000;2023-03-05T06:36:18;18.63;;;12.27;;
28958;SDS011;16066;0.000;0.000;2023-03-05T06:38:45;17.03;;;12.47;;
28958;SDS011;16066;0.000;0.000;2023-03-05T06:41:12;19.90;;;13.30;;
28958;SDS011;16066;0.000;0.000;2023-03-05T06:43:40;18.43;;;13.10;;
28958;SDS011;16066;0.000;0.000;2023-03-05T06:46:11;19.87;;;13.50;;
28958;SDS011;16066;0.000;0.000;2023-03-05T06:48:45;20.40;;;13.80;;
28958;SDS011;16066;0.000;0.000;2023-03-05T06:51:13;18.67;;;12.70;;
28958;SDS011;16066;0.000;0.000;2023-03-05T06:53:46;19.40;;;13.40;;
28958;SDS011;16066;0.000;0.000;2023-03-05T06:56:13;21.10;;;13.20;;
28958;SDS011;16066;0.000;0.000;2023-03-05T06:58:40;19.23;;;13.00;;
28958;SDS011;16066;0.000;0.000;2023-03-05T07:01:06;18.23;;;12.80;;
28958;SDS011;16066;0.000;0.000;2023-03-05T07:03:33;17.67;;;12.73;;
28958;SDS011;16066;0.000;0.000;2023-03-05T07:06:06;19.65;;;13.10;;
28958;SDS011;16066;0.000;0.000;2023-03-05T07:08:34;16.97;;;12.57;;
28958;SDS011;16066;0.000;0.000;2023-03-05T07:11:00;17.60;;;11.87;;
28958;SDS011;16066;0.000;0.000;2023-03-05T07:13:27;15.70;;;11.63;;
28958;SDS011;16066;0.000;0.000;2023-03-05T07:15:53;17.73;;;12.33;;
28958;SDS011;16066;0.000;0.000;2023-03-05T07:18:19;16.93;;;11.23;;
28958;SDS011;16066;0.000;0.000;2023-03-05T07:20:45;18.80;;;12.57;;
28958;SDS011;16066;0.000;0.000;2023-03-05T07:23:10;15.77;;;12.07;;
28958;SDS011;16066;0.000;0.000;2023-03-05T07:25:36;16.20;;;12.17;;
28958;SDS011;16066;0.000;0.000;2023-03-05T07:28:03;19.67;;;12.73;;
28958;SDS011;16066;0.000;0.000;2023-03-05T07:30:32;19.13;;;12.23;;
28958;SDS011;16066;0.000;0.000;2023-03-05T07:32:58;20.23;;;12.13;;
28958;SDS011;16066;0.000;0.000;2023-03-05T07:35:24;16.47;;;11.90;;
28958;SDS011;16066;0.000;0.000;2023-03-05T07:37:50;18.70;;;11.77;;
28958;SDS011;16066;0.000;0.000;2023-03-05T07:40:16;19.13;;;12.00;;
28958;SDS011;16066;0.000;0.000;2023-03-05T07:42:41;14.17;;;10.07;;
28958;SDS011;16066;0.000;0.000;2023-03-05T07:45:07;13.60;;;9.30;;
28958;SDS011;16066;0.000;0.000;2023-03-05T07:47:33;16.57;;;9.60;;
28958;SDS011;16066;0.000;0.000;2023-03-05T07:49:59;13.57;;;9.30;;
28958;SDS011;16066;0.000;0.000;2023-03-05T07:52:25;13.30;;;9.67;;
28958;SDS011;16066;0.000;0.000;2023-03-05T07:54:51;12.77;;;9.67;;
28958;SDS011;16066;0.000;0.000;2023-03-05T07:57:16;14.73;;;9.67;;
28958;SDS011;16066;0.000;0.000;2023-03-05T07:59:42;11.63;;;8.43;;
28958;SDS011;16066;0.000;0.000;2023-03-05T08:02:11;13.40;;;8.83;;
28958;SDS011;16066;0.000;0.000;2023-03-05T08:04:37;11.70;;;8.50;;
28958;SDS011;16066;0.000;0.000;2023-03-05T08:07:02;12.33;;;8.57;;
28958;SDS011;16066;0.000;0.000;2023-03-05T08:09:28;13.60;;;8.73;;
28958;SDS011;16066;0.000;0.000;2023-03-05T08:11:54;11.00;;;7.73;;
28958;SDS011;16066;0.000;0.000;2023-03-05T08:14:20;10.87;;;7.50;;
28958;SDS011;16066;0.000;0.000;2023-03-05T08:16:46;9.63;;;7.27;;
28958;SDS011;16066;0.000;0.000;2023-03-05T08:19:16;13.37;;;7.90;;
28958;SDS011;16066;0.000;0.000;2023-03-05T08:21:42;11.10;;;7.97;;
28958;SDS011;16066;0.000;0.000;2023-03-05T08:24:07;11.97;;;7.90;;
28958;SDS011;16066;0.000;0.000;2023-03-05T08:26:35;11.70;;;7.30;;
28958;SDS011;16066;0.000;0.000;2023-03-05T08:29:05;9.53;;;7.00;;
28958;SDS011;16066;0.000;0.000;2023-03-05T08:31:32;10.30;;;7.17;;
28958;SDS011;16066;0.000;0.000;2023-03-05T08:33:58;10.70;;;6.60;;
28958;SDS011;16066;0.000;0.000;2023-03-05T08:36:25;10.13;;;6.80;;
28958;SDS011;16066;0.000;0.000;2023-03-05T08:38:52;8.33;;;6.30;;
28958;SDS011;16066;0.000;0.000;2023-03-05T08:41:17;11.53;;;7.03;;
28958;SDS011;16066;0.000;0.000;2023-03-05T08:43:43;12.77;;;7.80;;
28958;SDS011;16066;0.000;0.000;2023-03-05T08:46:12;9.50;;;6.60;;
28958;SDS011;16066;0.000;0.000;2023-03-05T08:48:39;8.57;;;6.30;;
28958;SDS011;16066;0.000;0.000;2023-03-05T08:51:23;9.60;;;5.93;;
28958;SDS011;16066;0.000;0.000;2023-03-05T08:53:50;8.80;;;5.87;;
28958;SDS011;16066;0.000;0.000;2023-03-05T08:56:17;10.57;;;7.03;;
28958;SDS011;16066;0.000;0.000;2023-03-05T08:58:43;9.20;;;6.17;;
28958;SDS011;16066;0.000;0.000;2023-03-05T09:01:10;10.20;;;6.40;;
28958;SDS011;16066;0.000;0.000;2023-03-05T09:03:36;6.87;;;5.80;;
28958;SDS011;16066;0.000;0.000;2023-03-05T09:06:03;8.30;;;6.40;;
28958;SDS011;16066;0.000;0.000;2023-03-05T09:08:31;8.83;;;5.77;;
28958;SDS011;16066;0.000;0.000;2023-03-05T09:10:57;8.27;;;5.87;;
28958;SDS011;16066;0.000;0.000;2023-03-05T09:13:25;7.50;;;5.60;;
28958;SDS011;16066;0.000;0.000;2023-03-05T09:15:57;8.07;;;5.90;;
28958;SDS011;16066;0.000;0.000;2023-03-05T09:18:35;7.57;;;5.77;;
28958;SDS011;16066;0.000;0.000;2023-03-05T09:21:07;8.00;;;5.27;;
28958;SDS011;16066;0.000;0.000;2023-03-05T09:23:34;8.23;;;5.50;;
28958;SDS011;16066;0.000;0.000;2023-03-05T09:26:00;6.97;;;5.70;;
28958;SDS011;16066;0.000;0.000;2023-03-05T09:28:26;9.07;;;6.13;;
28958;SDS011;16066;0.000;0.000;2023-03-05T09:30:52;7.50;;;5.83;;
28958;SDS011;16066;0.000;0.000;2023-03-05T09:33:17;9.60;;;6.10;;
28958;SDS011;16066;0.000;0.000;2023-03-05T09:35:43;7.27;;;5.30;;
28958;SDS011;16066;0.000;0.000;2023-03-05T09:38:08;7.40;;;4.97;;
28958;SDS011;16066;0.000;0.000;2023-03-05T09:40:45;7.53;;;5.47;;
28958;SDS011;16066;0.000;0.000;2023-03-05T09:46:00;7.73;;;5.70;;
28958;SDS011;16066;0.000;0.000;2023-03-05T09:48:43;7.87;;;5.97;;
28958;SDS011;16066;0.000;0.000;2023-03-05T09:51:16;7.10;;;5.50;;
28958;SDS011;16066;0.000;0.000;2023-03-05T09:53:57;7.97;;;5.83;;
28958;SDS011;16066;0.000;0.000;2023-03-05T09:56:31;7.03;;;5.67;;
28958;SDS011;16066;0.000;0.000;2023-03-05T10:01:42;9.37;;;5.70;;
28958;SDS011;16066;0.000;0.000;2023-03-05T10:04:10;12.20;;;6.10;;
28958;SDS011;16066;0.000;0.000;2023-03-05T10:14:51;9.37;;;6.43;;
28958;SDS011;16066;0.000;0.000;2023-03-05T10:28:14;10.30;;;6.70;;
28958;SDS011;16066;0.000;0.000;2023-03-05T10:30:56;12.32;;;6.70;;
28958;SDS011;16066;0.000;0.000;2023-03-05T10:47:21;12.87;;;7.23;;
28958;SDS011;16066;0.000;0.000;2023-03-05T10:52:46;10.27;;;7.50;;
28958;SDS011;16066;0.000;0.000;2023-03-05T10:55:20;13.90;;;7.87;;
28958;SDS011;16066;0.000;0.000;2023-03-05T10:57:46;13.83;;;7.60;;
28958;SDS011;16066;0.000;0.000;2023-03-05T11:00:22;12.30;;;7.37;;
28958;SDS011;16066;0.000;0.000;2023-03-05T11:02:52;11.50;;;7.53;;
28958;SDS011;16066;0.000;0.000;2023-03-05T11:05:47;13.97;;;8.20;;
28958;SDS011;16066;0.000;0.000;2023-03-05T11:08:34;13.70;;;8.63;;
28958;SDS011;16066;0.000;0.000;2023-03-05T11:11:05;12.30;;;7.60;;
28958;SDS011;16066;0.000;0.000;2023-03-05T11:13:34;10.63;;;7.60;;
28958;SDS011;16066;0.000;0.000;2023-03-05T11:16:03;10.87;;;8.03;;
28958;SDS011;16066;0.000;0.000;2023-03-05T11:18:31;10.83;;;7.20;;
28958;SDS011;16066;0.000;0.000;2023-03-05T11:23:43;16.07;;;8.10;;
28958;SDS011;16066;0.000;0.000;2023-03-05T11:26:27;10.07;;;7.37;;
28958;SDS011;16066;0.000;0.000;2023-03-05T11:31:19;13.50;;;7.47;;
28958;SDS011;16066;0.000;0.000;2023-03-05T11:34:01;12.97;;;8.27;;
28958;SDS011;16066;0.000;0.000;2023-03-05T11:39:22;9.80;;;7.40;;
28958;SDS011;16066;0.000;0.000;2023-03-05T11:44:41;11.43;;;6.80;;
28958;SDS011;16066;0.000;0.000;2023-03-05T11:50:04;11.47;;;7.00;;
28958;SDS011;16066;0.000;0.000;2023-03-05T11:52:57;9.23;;;6.07;;
28958;SDS011;16066;0.000;0.000;2023-03-05T11:58:21;11.20;;;7.40;;
28958;SDS011;16066;0.000;0.000;2023-03-05T12:00:59;10.30;;;7.10;;
28958;SDS011;16066;0.000;0.000;2023-03-05T12:03:34;7.70;;;5.97;;
28958;SDS011;16066;0.000;0.000;2023-03-05T12:08:47;11.20;;;7.00;;
28958;SDS011;16066;0.000;0.000;2023-03-05T12:11:20;8.93;;;6.67;;
28958;SDS011;16066;0.000;0.000;2023-03-05T12:13:56;13.00;;;6.77;;
28958;SDS011;16066;0.000;0.000;2023-03-05T12:16:33;11.03;;;8.53;;
28958;SDS011;16066;0.000;0.000;2023-03-05T12:21:52;11.63;;;7.47;;
28958;SDS011;16066;0.000;0.000;2023-03-05T12:29:47;11.10;;;7.77;;
28958;SDS011;16066;0.000;0.000;2023-03-05T12:37:55;13.40;;;8.60;;
28958;SDS011;16066;0.000;0.000;2023-03-05T12:47:43;25.45;;;9.40;;
28958;SDS011;16066;0.000;0.000;2023-03-05T12:53:12;12.33;;;8.73;;
28958;SDS011;16066;0.000;0.000;2023-03-05T12:55:50;13.30;;;8.87;;
28958;SDS011;16066;0.000;0.000;2023-03-05T12:58:42;12.20;;;9.20;;
28958;SDS011;16066;0.000;0.000;2023-03-05T13:01:18;11.40;;;8.80;;
28958;SDS011;16066;0.000;0.000;2023-03-05T13:03:56;12.30;;;8.40;;
28958;SDS011;16066;0.000;0.000;2023-03-05T13:06:29;13.93;;;9.03;;
28958;SDS011;16066;0.000;0.000;2023-03-05T13:11:55;14.20;;;9.87;;
28958;SDS011;16066;0.000;0.000;2023-03-05T13:16:53;12.70;;;9.50;;
28958;SDS011;16066;0.000;0.000;2023-03-05T13:19:19;14.47;;;10.50;;
28958;SDS011;16066;0.000;0.000;2023-03-05T13:21:45;17.77;;;11.53;;
28958;SDS011;16066;0.000;0.000;2023-03-05T13:24:20;14.23;;;10.70;;
28958;SDS011;16066;0.000;0.000;2023-03-05T13:26:46;17.20;;;11.57;;
28958;SDS011;16066;0.000;0.000;2023-03-05T13:29:12;15.10;;;10.10;;
28958;SDS011;16066;0.000;0.000;2023-03-05T13:31:43;14.47;;;10.50;;
28958;SDS011;16066;0.000;0.000;2023-03-05T13:34:33;24.43;;;11.57;;
28958;SDS011;16066;0.000;0.000;2023-03-05T13:37:03;17.30;;;10.63;;
28958;SDS011;16066;0.000;0.000;2023-03-05T13:39:56;27.37;;;16.53;;
28958;SDS011;16066;0.000;0.000;2023-03-05T13:44:56;24.73;;;16.17;;
28958;SDS011;16066;0.000;0.000;2023-03-05T13:47:24;29.93;;;17.87;;
28958;SDS011;16066;0.000;0.000;2023-03-05T13:49:56;27.20;;;18.70;;
28958;SDS011;16066;0.000;0.000;2023-03-05T13:52:31;28.87;;;17.90;;
28958;SDS011;16066;0.000;0.000;2023-03-05T13:54:58;25.63;;;17.73;;
28958;SDS011;16066;0.000;0.000;2023-03-05T13:57:38;22.27;;;16.20;;
28958;SDS011;16066;0.000;0.000;2023-03-05T14:00:29;22.47;;;16.20;;
28958;SDS011;16066;0.000;0.000;2023-03-05T14:02:52;29.27;;;17.30;;
28958;SDS011;16066;0.000;0.000;2023-03-05T14:05:20;23.90;;;16.83;;
28958;SDS011;16066;0.000;0.000;2023-03-05T14:07:47;24.50;;;17.77;;
28958;SDS011;16066;0.000;0.000;2023-03-05T14:12:52;23.60;;;16.70;;
28958;SDS011;16066;0.000;0.000;2023-03-05T14:17:50;20.20;;;15.03;;
28958;SDS011;16066;0.000;0.000;2023-03-05T14:22:47;22.27;;;16.37;;
28958;SDS011;16066;0.000;0.000;2023-03-05T14:25:27;22.47;;;16.33;;
28958;SDS011;16066;0.000;0.000;2023-03-05T14:28:03;19.77;;;15.30;;
28958;SDS011;16066;0.000;0.000;2023-03-05T14:30:50;23.43;;;16.07;;
28958;SDS011;16066;0.000;0.000;2023-03-05T14:33:36;19.23;;;13.73;;
28958;SDS011;16066;0.000;0.000;2023-03-05T14:36:02;21.27;;;15.10;;
28958;SDS011;16066;0.000;0.000;2023-03-05T14:38:30;22.10;;;14.37;;
28958;SDS011;16066;0.000;0.000;2023-03-05T14:40:58;20.70;;;15.17;;
28958;SDS011;16066;0.000;0.000;2023-03-05T14:44:15;23.07;;;15.10;;
28958;SDS011;16066;0.000;0.000;2023-03-05T14:46:41;19.30;;;13.20;;
28958;SDS011;16066;0.000;0.000;2023-03-05T14:49:07;22.40;;;14.40;;
28958;SDS011;16066;0.000;0.000;2023-03-05T14:51:37;20.23;;;14.07;;
28958;SDS011;16066;0.000;0.000;2023-03-05T14:54:06;26.97;;;14.57;;
28958;SDS011;16066;0.000;0.000;2023-03-05T14:56:41;24.17;;;14.33;;
28958;SDS011;16066;0.000;0.000;2023-03-05T14:59:07;22.43;;;14.70;;
28958;SDS011;16066;0.000;0.000;2023-03-05T15:01:33;20.80;;;14.20;;
28958;SDS011;16066;0.000;0.000;2023-03-05T15:03:58;19.20;;;14.00;;
28958;SDS011;16066;0.000;0.000;2023-03-05T15:06:43;18.57;;;13.80;;
28958;SDS011;16066;0.000;0.000;2023-03-05T15:09:12;15.83;;;11.40;;
28958;SDS011;16066;0.000;0.000;2023-03-05T15:11:41;19.93;;;13.50;;
28958;SDS011;16066;0.000;0.000;2023-03-05T15:14:08;18.87;;;12.83;;
28958;SDS011;16066;0.000;0.000;2023-03-05T15:16:34;20.80;;;14.30;;
28958;SDS011;16066;0.000;0.000;2023-03-05T15:18:59;18.63;;;12.80;;
28958;SDS011;16066;0.000;0.000;2023-03-05T15:21:27;16.70;;;12.57;;
28958;SDS011;16066;0.000;0.000;2023-03-05T15:23:53;16.90;;;12.50;;
28958;SDS011;16066;0.000;0.000;2023-03-05T15:26:18;23.07;;;12.73;;
28958;SDS011;16066;0.000;0.000;2023-03-05T15:28:45;15.40;;;11.80;;
28958;SDS011;16066;0.000;0.000;2023-03-05T15:31:11;16.30;;;12.40;;
28958;SDS011;16066;0.000;0.000;2023-03-05T15:33:37;15.63;;;11.47;;
28958;SDS011;16066;0.000;0.000;2023-03-05T15:36:03;16.07;;;11.40;;
28958;SDS011;16066;0.000;0.000;2023-03-05T15:38:29;20.57;;;12.70;;
28958;SDS011;16066;0.000;0.000;2023-03-05T15:40:54;17.13;;;12.10;;
28958;SDS011;16066;0.000;0.000;2023-03-05T15:43:20;18.40;;;12.70;;
28958;SDS011;16066;0.000;0.000;2023-03-05T15:45:45;16.30;;;11.47;;
28958;SDS011;16066;0.000;0.000;2023-03-05T15:48:11;19.20;;;13.20;;
28958;SDS011;16066;0.000;0.000;2023-03-05T15:50:41;15.97;;;11.20;;
28958;SDS011;16066;0.000;0.000;2023-03-05T15:53:07;19.43;;;12.40;;
28958;SDS011;16066;0.000;0.000;2023-03-05T15:55:40;14.40;;;11.10;;
28958;SDS011;16066;0.000;0.000;2023-03-05T15:58:07;23.70;;;11.50;;
28958;SDS011;16066;0.000;0.000;2023-03-05T16:00:33;18.37;;;12.80;;
28958;SDS011;16066;0.000;0.000;2023-03-05T16:03:04;16.67;;;11.67;;
28958;SDS011;16066;0.000;0.000;2023-03-05T16:05:31;16.93;;;12.37;;
28958;SDS011;16066;0.000;0.000;2023-03-05T16:07:58;19.90;;;13.87;;
28958;SDS011;16066;0.000;0.000;2023-03-05T16:10:25;17.37;;;11.90;;
28958;SDS011;16066;0.000;0.000;2023-03-05T16:12:53;17.60;;;11.87;;
28958;SDS011;16066;0.000;0.000;2023-03-05T16:15:27;17.87;;;13.00;;
28958;SDS011;16066;0.000;0.000;2023-03-05T16:17:55;17.13;;;12.10;;
28958;SDS011;16066;0.000;0.000;2023-03-05T16:20:23;15.77;;;11.97;;
28958;SDS011;16066;0.000;0.000;2023-03-05T16:22:48;14.90;;;11.43;;
28958;SDS011;16066;0.000;0.000;2023-03-05T16:25:14;17.77;;;12.27;;